sensor_id;sensor_type;location;lat;lon;timestamp;pressure;altitude;pressure_sealevel;temperature;humidity
29935;BME280;19905;53.370;-6.314;2023-05-01T00:01:15;101482.94;;;10.94;100.00
29935;BME280;19905;53.370;-6.314;2023-05-01T00:03:45;101485.50;;;10.96;100.00
29935;BME280;19905;53.370;-6.314;2023-05-01T00:06:15;101491.84;;;10.93;100.00
29935;BME280;19905;53.370;-6.314;2023-05-01T00:08:44;101482.22;;;10.92;100.00
29935;BME280;19905;53.370;-6.314;2023-05-01T00:11:13;101479.69;;;10.90;100.00
29935;BME280;19905;53.370;-6.314;2023-05-01T00:13:42;101484.97;;;10.90;100.00
29935;BME280;19905;53.370;-6.314;2023-05-01T00:16:12;101488.34;;;10.92;100.00
29935;BME280;19905;53.370;-6.314;2023-05-01T00:18:43;101482.22;;;10.92;100.00
29935;BME280;19905;53.370;-6.314;2023-05-01T00:21:11;101479.47;;;10.93;100.00
29935;BME280;19905;53.370;-6.314;2023-05-01T00:23:40;101480.31;;;10.94;100.00
29935;BME280;19905;53.370;-6.314;2023-05-01T00:26:09;101484.75;;;10.93;100.00
29935;BME280;19905;53.370;-6.314;2023-05-01T00:28:37;101482.22;;;10.92;100.00
29935;BME280;19905;53.370;-6.314;2023-05-01T00:31:06;101476.94;;;10.92;100.00
29935;BME280;19905;53.370;-6.314;2023-05-01T00:33:36;101473.44;;;10.91;100.00
29935;BME280;19905;53.370;-6.314;2023-05-01T00:36:05;101471.75;;;10.90;100.00
29935;BME280;19905;53.370;-6.314;2023-05-01T00:38:35;101464.00;;;10.87;100.00
29935;BME280;19905;53.370;-6.314;2023-05-01T00:41:03;101467.41;;;10.89;100.00
29935;BME280;19905;53.370;-6.314;2023-05-01T00:43:33;101464.66;;;10.91;100.00
29935;BME280;19905;53.370;-6.314;2023-05-01T00:46:03;101460.59;;;10.85;100.00
29935;BME280;19905;53.370;-6.314;2023-05-01T00:48:33;101466.84;;;10.84;100.00
29935;BME280;19905;53.370;-6.314;2023-05-01T00:51:04;101456.56;;;10.80;100.00
29935;BME280;19905;53.370;-6.314;2023-05-01T00:53:34;101462.94;;;10.77;100.00
29935;BME280;19905;53.370;-6.314;2023-05-01T00:56:04;101460.19;;;10.79;100.00
29935;BME280;19905;53.370;-6.314;2023-05-01T00:58:33;101465.56;;;10.77;100.00
29935;BME280;19905;53.370;-6.314;2023-05-01T01:01:03;101463.00;;;10.76;100.00
29935;BME280;19905;53.370;-6.314;2023-05-01T01:03:32;101467.44;;;10.75;100.00
29935;BME280;19905;53.370;-6.314;2023-05-01T01:06:09;101463.84;;;10.76;100.00
29935;BME280;19905;53.370;-6.314;2023-05-01T01:08:52;101471.88;;;10.75;100.00
29935;BME280;19905;53.370;-6.314;2023-05-01T01:11:35;101472.00;;;10.73;100.00
29935;BME280;19905;53.370;-6.314;2023-05-01T01:14:09;101469.00;;;10.65;100.00
29935;BME280;19905;53.370;-6.314;2023-05-01T01:16:44;101458.72;;;10.60;100.00
29935;BME280;19905;53.370;-6.314;2023-05-01T01:19:31;101463.47;;;10.55;100.00
29935;BME280;19905;53.370;-6.314;2023-05-01T01:22:07;101459.31;;;10.51;100.00
29935;BME280;19905;53.370;-6.314;2023-05-01T01:25:04;101455.94;;;10.49;100.00
29935;BME280;19905;53.370;-6.314;2023-05-01T01:27:53;101467.44;;;10.48;100.00
29935;BME280;19905;53.370;-6.314;2023-05-01T01:33:53;101460.28;;;10.50;100.00
29935;BME280;19905;53.370;-6.314;2023-05-01T01:36:33;101464.72;;;10.50;100.00
29935;BME280;19905;53.370;-6.314;2023-05-01T01:39:12;101461.97;;;10.51;100.00
29935;BME280;19905;53.370;-6.314;2023-05-01T01:41:47;101464.13;;;10.59;100.00
29935;BME280;19905;53.370;-6.314;2023-05-01T01:44:22;101463.28;;;10.58;100.00
29935;BME280;19905;53.370;-6.314;2023-05-01T01:46:53;101457.78;;;10.61;100.00
29935;BME280;19905;53.370;-6.314;2023-05-01T01:49:25;101458.63;;;10.62;100.00
29935;BME280;19905;53.370;-6.314;2023-05-01T01:51:56;101457.69;;;10.63;100.00
29935;BME280;19905;53.370;-6.314;2023-05-01T01:54:30;101453.16;;;10.65;100.00
29935;BME280;19905;53.370;-6.314;2023-05-01T01:57:01;101447.13;;;10.63;100.00
29935;BME280;19905;53.370;-6.314;2023-05-01T01:59:33;101448.81;;;10.64;100.00
29935;BME280;19905;53.370;-6.314;2023-05-01T02:02:03;101447.88;;;10.65;100.00
29935;BME280;19905;53.370;-6.314;2023-05-01T02:04:35;101441.44;;;10.69;100.00
29935;BME280;19905;53.370;-6.314;2023-05-01T02:07:05;101446.91;;;10.66;100.00
29935;BME280;19905;53.370;-6.314;2023-05-01T02:09:36;101445.13;;;10.66;100.00
29935;BME280;19905;53.370;-6.314;2023-05-01T02:12:07;101438.25;;;10.64;100.00
29935;BME280;19905;53.370;-6.314;2023-05-01T02:14:38;101454.00;;;10.65;100.00
29935;BME280;19905;53.370;-6.314;2023-05-01T02:17:09;101431.91;;;10.66;100.00
29935;BME280;19905;53.370;-6.314;2023-05-01T02:19:43;101435.38;;;10.67;100.00
29935;BME280;19905;53.370;-6.314;2023-05-01T02:22:13;101435.59;;;10.64;100.00
29935;BME280;19905;53.370;-6.314;2023-05-01T02:24:45;101440.13;;;10.62;100.00
29935;BME280;19905;53.370;-6.314;2023-05-01T02:27:15;101444.69;;;10.60;100.00
29935;BME280;19905;53.370;-6.314;2023-05-01T02:29:47;101438.56;;;10.59;100.00
29935;BME280;19905;53.370;-6.314;2023-05-01T02:32:15;101438.63;;;10.58;100.00
29935;BME280;19905;53.370;-6.314;2023-05-01T02:34:45;101442.63;;;10.51;100.00
29935;BME280;19905;53.370;-6.314;2023-05-01T02:37:14;101434.81;;;10.49;100.00
29935;BME280;19905;53.370;-6.314;2023-05-01T02:39:43;101436.50;;;10.50;100.00
29935;BME280;19905;53.370;-6.314;2023-05-01T02:42:12;101438.19;;;10.51;100.00
29935;BME280;19905;53.370;-6.314;2023-05-01T02:44:47;101444.88;;;10.57;100.00
29935;BME280;19905;53.370;-6.314;2023-05-01T02:47:19;101440.66;;;10.54;100.00
29935;BME280;19905;53.370;-6.314;2023-05-01T02:49:52;101441.56;;;10.53;100.00
29935;BME280;19905;53.370;-6.314;2023-05-01T02:52:22;101430.81;;;10.56;100.00
29935;BME280;19905;53.370;-6.314;2023-05-01T02:54:51;101440.72;;;10.53;100.00
29935;BME280;19905;53.370;-6.314;2023-05-01T02:57:19;101442.81;;;10.48;100.00
29935;BME280;19905;53.370;-6.314;2023-05-01T02:59:48;101441.00;;;10.48;100.00
29935;BME280;19905;53.370;-6.314;2023-05-01T03:02:17;101437.94;;;10.41;100.00
29935;BME280;19905;53.370;-6.314;2023-05-01T03:04:47;101451.31;;;10.38;100.00
29935;BME280;19905;53.370;-6.314;2023-05-01T03:07:17;101449.44;;;10.40;100.00
29935;BME280;19905;53.370;-6.314;2023-05-01T03:09:45;101444.34;;;10.37;100.00
29935;BME280;19905;53.370;-6.314;2023-05-01T03:12:14;101448.56;;;10.40;100.00
29935;BME280;19905;53.370;-6.314;2023-05-01T03:14:42;101445.75;;;10.43;100.00
29935;BME280;19905;53.370;-6.314;2023-05-01T03:17:11;101445.69;;;10.45;100.00
29935;BME280;19905;53.370;-6.314;2023-05-01T03:19:40;101443.03;;;10.45;100.00
29935;BME280;19905;53.370;-6.314;2023-05-01T03:22:08;101438.47;;;10.47;100.00
29935;BME280;19905;53.370;-6.314;2023-05-01T03:24:39;101439.16;;;10.50;100.00
29935;BME280;19905;53.370;-6.314;2023-05-01T03:27:07;101441.69;;;10.52;100.00
29935;BME280;19905;53.370;-6.314;2023-05-01T03:29:36;101438.31;;;10.50;100.00
29935;BME280;19905;53.370;-6.314;2023-05-01T03:32:06;101439.88;;;10.52;100.00
29935;BME280;19905;53.370;-6.314;2023-05-01T03:34:35;101440.84;;;10.51;100.00
29935;BME280;19905;53.370;-6.314;2023-05-01T03:37:04;101443.47;;;10.51;100.00
29935;BME280;19905;53.370;-6.314;2023-05-01T03:39:33;101447.81;;;10.52;100.00
29935;BME280;19905;53.370;-6.314;2023-05-01T03:42:04;101448.75;;;10.51;100.00
29935;BME280;19905;53.370;-6.314;2023-05-01T03:44:32;101448.66;;;10.53;100.00
29935;BME280;19905;53.370;-6.314;2023-05-01T03:47:01;101459.31;;;10.51;100.00
29935;BME280;19905;53.370;-6.314;2023-05-01T03:49:29;101459.44;;;10.50;100.00
29935;BME280;19905;53.370;-6.314;2023-05-01T03:51:59;101466.69;;;10.46;100.00
29935;BME280;19905;53.370;-6.314;2023-05-01T03:54:27;101462.38;;;10.45;100.00
29935;BME280;19905;53.370;-6.314;2023-05-01T03:56:57;101466.16;;;10.41;100.00
29935;BME280;19905;53.370;-6.314;2023-05-01T03:59:29;101475.75;;;10.42;100.00
29935;BME280;19905;53.370;-6.314;2023-05-01T04:01:57;101472.28;;;10.41;100.00
29935;BME280;19905;53.370;-6.314;2023-05-01T04:04:26;101479.13;;;10.44;100.00
29935;BME280;19905;53.370;-6.314;2023-05-01T04:06:56;101485.28;;;10.45;100.00
29935;BME280;19905;53.370;-6.314;2023-05-01T04:09:25;101488.84;;;10.43;100.00
29935;BME280;19905;53.370;-6.314;2023-05-01T04:11:56;101488.13;;;10.41;100.00
29935;BME280;19905;53.370;-6.314;2023-05-01T04:14:27;101496.78;;;10.43;100.00
29935;BME280;19905;53.370;-6.314;2023-05-01T04:16:57;101504.81;;;10.42;100.00
29935;BME280;19905;53.370;-6.314;2023-05-01T04:19:25;101499.41;;;10.43;100.00
29935;BME280;19905;53.370;-6.314;2023-05-01T04:21:54;101503.00;;;10.42;100.00
29935;BME280;19905;53.370;-6.314;2023-05-01T04:24:25;101502.06;;;10.43;100.00
29935;BME280;19905;53.370;-6.314;2023-05-01T04:26:53;101501.97;;;10.45;100.00
29935;BME280;19905;53.370;-6.314;2023-05-01T04:29:22;101505.38;;;10.47;100.00
29935;BME280;19905;53.370;-6.314;2023-05-01T04:31:53;101510.75;;;10.46;100.00
29935;BME280;19905;53.370;-6.314;2023-05-01T04:34:22;101504.63;;;10.45;100.00
29935;BME280;19905;53.370;-6.314;2023-05-01T04:36:50;101503.56;;;10.48;100.00
29935;BME280;19905;53.370;-6.314;2023-05-01T04:39:19;101515.81;;;10.49;100.00
29935;BME280;19905;53.370;-6.314;2023-05-01T04:41:48;101511.50;;;10.48;100.00
29935;BME280;19905;53.370;-6.314;2023-05-01T04:44:16;101517.53;;;10.50;100.00
29935;BME280;19905;53.370;-6.314;2023-05-01T04:46:45;101515.75;;;10.50;100.00
29935;BME280;19905;53.370;-6.314;2023-05-01T04:49:15;101520.91;;;10.52;100.00
29935;BME280;19905;53.370;-6.314;2023-05-01T04:51:44;101526.03;;;10.55;100.00
29935;BME280;19905;53.370;-6.314;2023-05-01T04:54:13;101526.97;;;10.54;100.00
29935;BME280;19905;53.370;-6.314;2023-05-01T04:56:41;101527.81;;;10.54;100.00
29935;BME280;19905;53.370;-6.314;2023-05-01T04:59:10;101528.56;;;10.56;100.00
29935;BME280;19905;53.370;-6.314;2023-05-01T05:01:39;101525.19;;;10.54;100.00
29935;BME280;19905;53.370;-6.314;2023-05-01T05:04:07;101526.88;;;10.55;100.00
29935;BME280;19905;53.370;-6.314;2023-05-01T05:06:37;101539.88;;;10.58;100.00
29935;BME280;19905;53.370;-6.314;2023-05-01T05:09:06;101540.81;;;10.57;100.00
29935;BME280;19905;53.370;-6.314;2023-05-01T05:11:35;101543.44;;;10.57;100.00
29935;BME280;19905;53.370;-6.314;2023-05-01T05:14:03;101541.47;;;10.61;100.00
29935;BME280;19905;53.370;-6.314;2023-05-01T05:16:32;101546.88;;;10.59;100.00
29935;BME280;19905;53.370;-6.314;2023-05-01T05:19:01;101546.03;;;10.59;100.00
29935;BME280;19905;53.370;-6.314;2023-05-01T05:21:30;101544.28;;;10.58;100.00
29935;BME280;19905;53.370;-6.314;2023-05-01T05:24:00;101545.19;;;10.58;100.00
29935;BME280;19905;53.370;-6.314;2023-05-01T05:26:30;101542.59;;;10.57;100.00
29935;BME280;19905;53.370;-6.314;2023-05-01T05:28:58;101545.25;;;10.57;100.00
29935;BME280;19905;53.370;-6.314;2023-05-01T05:31:27;101534.50;;;10.60;100.00
29935;BME280;19905;53.370;-6.314;2023-05-01T05:33:56;101545.72;;;10.63;100.00
29935;BME280;19905;53.370;-6.314;2023-05-01T05:36:24;101549.09;;;10.65;100.00
29935;BME280;19905;53.370;-6.314;2023-05-01T05:38:53;101552.53;;;10.67;100.00
29935;BME280;19905;53.370;-6.314;2023-05-01T05:41:24;101550.63;;;10.69;100.00
29935;BME280;19905;53.370;-6.314;2023-05-01T05:43:52;101543.53;;;10.70;100.00
29935;BME280;19905;53.370;-6.314;2023-05-01T05:46:22;101546.56;;;10.64;100.00
29935;BME280;19905;53.370;-6.314;2023-05-01T05:48:51;101542.03;;;10.66;100.00
29935;BME280;19905;53.370;-6.314;2023-05-01T05:51:20;101538.66;;;10.64;100.00
29935;BME280;19905;53.370;-6.314;2023-05-01T05:53:49;101543.09;;;10.63;100.00
29935;BME280;19905;53.370;-6.314;2023-05-01T05:56:17;101553.66;;;10.63;100.00
29935;BME280;19905;53.370;-6.314;2023-05-01T05:58:48;101554.50;;;10.64;100.00
29935;BME280;19905;53.370;-6.314;2023-05-01T06:01:17;101547.53;;;10.63;100.00
29935;BME280;19905;53.370;-6.314;2023-05-01T06:03:45;101559.69;;;10.65;100.00
29935;BME280;19905;53.370;-6.314;2023-05-01T06:06:15;101562.22;;;10.67;100.00
29935;BME280;19905;53.370;-6.314;2023-05-01T06:08:44;101571.00;;;10.67;100.00
29935;BME280;19905;53.370;-6.314;2023-05-01T06:11:13;101572.50;;;10.72;100.00
29935;BME280;19905;53.370;-6.314;2023-05-01T06:13:42;101577.88;;;10.70;100.00
29935;BME280;19905;53.370;-6.314;2023-05-01T06:16:12;101576.84;;;10.73;100.00
29935;BME280;19905;53.370;-6.314;2023-05-01T06:18:42;101584.50;;;10.77;100.00
29935;BME280;19905;53.370;-6.314;2023-05-01T06:21:11;101584.78;;;10.73;100.00
29935;BME280;19905;53.370;-6.314;2023-05-01T06:23:40;101582.69;;;10.78;100.00
29935;BME280;19905;53.370;-6.314;2023-05-01T06:26:09;101589.00;;;10.75;100.00
29935;BME280;19905;53.370;-6.314;2023-05-01T06:28:38;101589.66;;;10.79;100.00
29935;BME280;19905;53.370;-6.314;2023-05-01T06:31:07;101593.16;;;10.79;100.00
29935;BME280;19905;53.370;-6.314;2023-05-01T06:33:38;101594.78;;;10.82;100.00
29935;BME280;19905;53.370;-6.314;2023-05-01T06:36:06;101601.56;;;10.86;100.00
29935;BME280;19905;53.370;-6.314;2023-05-01T06:38:36;101594.25;;;10.89;100.00
29935;BME280;19905;53.370;-6.314;2023-05-01T06:41:05;101596.28;;;10.86;100.00
29935;BME280;19905;53.370;-6.314;2023-05-01T06:43:33;101600.63;;;10.87;100.00
29935;BME280;19905;53.370;-6.314;2023-05-01T06:46:03;101602.97;;;10.91;100.00
29935;BME280;19905;53.370;-6.314;2023-05-01T06:48:31;101597.56;;;10.93;100.00
29935;BME280;19905;53.370;-6.314;2023-05-01T06:51:01;101605.03;;;11.01;100.00
29935;BME280;19905;53.370;-6.314;2023-05-01T06:53:30;101598.13;;;10.98;100.00
29935;BME280;19905;53.370;-6.314;2023-05-01T06:55:59;101602.56;;;10.98;100.00
29935;BME280;19905;53.370;-6.314;2023-05-01T06:58:27;101609.16;;;11.05;100.00
29935;BME280;19905;53.370;-6.314;2023-05-01T07:00:56;101602.75;;;11.09;100.00
29935;BME280;19905;53.370;-6.314;2023-05-01T07:03:25;101602.63;;;11.10;100.00
29935;BME280;19905;53.370;-6.314;2023-05-01T07:05:55;101598.00;;;11.14;100.00
29935;BME280;19905;53.370;-6.314;2023-05-01T07:08:26;101599.34;;;11.34;100.00
29935;BME280;19905;53.370;-6.314;2023-05-01T07:10:55;101601.13;;;11.33;100.00
29935;BME280;19905;53.370;-6.314;2023-05-01T07:13:24;101598.13;;;11.25;100.00
29935;BME280;19905;53.370;-6.314;2023-05-01T07:15:52;101597.09;;;11.28;100.00
29935;BME280;19905;53.370;-6.314;2023-05-01T07:18:21;101595.75;;;11.35;100.00
29935;BME280;19905;53.370;-6.314;2023-05-01T07:20:50;101595.97;;;11.44;100.00
29935;BME280;19905;53.370;-6.314;2023-05-01T07:23:19;101602.13;;;11.45;100.00
29935;BME280;19905;53.370;-6.314;2023-05-01T07:25:51;101595.78;;;11.48;100.00
29935;BME280;19905;53.370;-6.314;2023-05-01T07:28:19;101592.66;;;11.55;100.00
29935;BME280;19905;53.370;-6.314;2023-05-01T07:30:48;101593.72;;;11.65;100.00
29935;BME280;19905;53.370;-6.314;2023-05-01T07:33:17;101586.81;;;11.63;100.00
29935;BME280;19905;53.370;-6.314;2023-05-01T07:35:45;101580.91;;;11.72;100.00
29935;BME280;19905;53.370;-6.314;2023-05-01T07:38:15;101584.41;;;11.73;100.00
29935;BME280;19905;53.370;-6.314;2023-05-01T07:40:44;101582.06;;;11.68;100.00
29935;BME280;19905;53.370;-6.314;2023-05-01T07:43:14;101590.31;;;11.63;100.00
29935;BME280;19905;53.370;-6.314;2023-05-01T07:45:53;101584.84;;;11.79;100.00
29935;BME280;19905;53.370;-6.314;2023-05-01T07:48:24;101573.44;;;11.79;100.00
29935;BME280;19905;53.370;-6.314;2023-05-01T07:50:53;101579.75;;;11.76;100.00
29935;BME280;19905;53.370;-6.314;2023-05-01T07:53:22;101580.91;;;11.72;100.00
29935;BME280;19905;53.370;-6.314;2023-05-01T07:55:51;101571.34;;;11.84;100.00
29935;BME280;19905;53.370;-6.314;2023-05-01T07:58:21;101565.63;;;11.90;100.00
29935;BME280;19905;53.370;-6.314;2023-05-01T08:00:49;101566.59;;;12.02;100.00
29935;BME280;19905;53.370;-6.314;2023-05-01T08:03:17;101579.41;;;12.08;100.00
29935;BME280;19905;53.370;-6.314;2023-05-01T08:05:46;101580.38;;;12.07;100.00
29935;BME280;19905;53.370;-6.314;2023-05-01T08:08:15;101572.63;;;12.16;100.00
29935;BME280;19905;53.370;-6.314;2023-05-01T08:10:46;101571.78;;;12.03;100.00
29935;BME280;19905;53.370;-6.314;2023-05-01T08:13:15;101578.34;;;11.98;100.00
29935;BME280;19905;53.370;-6.314;2023-05-01T08:15:46;101583.00;;;12.07;100.00
29935;BME280;19905;53.370;-6.314;2023-05-01T08:18:15;101573.91;;;12.11;100.00
29935;BME280;19905;53.370;-6.314;2023-05-01T08:20:47;101570.69;;;12.31;100.00
29935;BME280;19905;53.370;-6.314;2023-05-01T08:23:16;101567.72;;;12.61;100.00
29935;BME280;19905;53.370;-6.314;2023-05-01T08:25:45;101556.00;;;12.77;100.00
29935;BME280;19905;53.370;-6.314;2023-05-01T08:28:18;101557.34;;;12.82;100.00
29935;BME280;19905;53.370;-6.314;2023-05-01T08:30:48;101551.00;;;12.85;100.00
29935;BME280;19905;53.370;-6.314;2023-05-01T08:33:17;101548.50;;;12.70;100.00
29935;BME280;19905;53.370;-6.314;2023-05-01T08:35:47;101556.13;;;12.75;100.00
29935;BME280;19905;53.370;-6.314;2023-05-01T08:38:17;101552.94;;;12.70;100.00
29935;BME280;19905;53.370;-6.314;2023-05-01T08:40:50;101556.97;;;12.76;100.00
29935;BME280;19905;53.370;-6.314;2023-05-01T08:43:19;101559.13;;;12.94;100.00
29935;BME280;19905;53.370;-6.314;2023-05-01T08:45:50;101556.47;;;12.94;100.00
29935;BME280;19905;53.370;-6.314;2023-05-01T08:48:20;101569.44;;;13.23;100.00
29935;BME280;19905;53.370;-6.314;2023-05-01T08:50:52;101562.25;;;13.12;100.00
29935;BME280;19905;53.370;-6.314;2023-05-01T08:53:24;101554.66;;;12.95;100.00
29935;BME280;19905;53.370;-6.314;2023-05-01T08:55:54;101570.94;;;12.78;100.00
29935;BME280;19905;53.370;-6.314;2023-05-01T08:58:24;101565.94;;;12.86;100.00
29935;BME280;19905;53.370;-6.314;2023-05-01T09:00:55;101565.88;;;12.75;100.00
29935;BME280;19905;53.370;-6.314;2023-05-01T09:03:25;101562.31;;;12.87;100.00
29935;BME280;19905;53.370;-6.314;2023-05-01T09:05:55;101553.47;;;12.99;100.00
29935;BME280;19905;53.370;-6.314;2023-05-01T09:08:24;101552.59;;;13.35;100.00
29935;BME280;19905;53.370;-6.314;2023-05-01T09:10:55;101559.84;;;13.33;100.00
29935;BME280;19905;53.370;-6.314;2023-05-01T09:13:25;101559.56;;;13.25;100.00
29935;BME280;19905;53.370;-6.314;2023-05-01T09:15:56;101557.41;;;13.30;100.00
29935;BME280;19905;53.370;-6.314;2023-05-01T09:18:26;101558.81;;;13.93;100.00
29935;BME280;19905;53.370;-6.314;2023-05-01T09:20:55;101543.50;;;14.31;100.00
29935;BME280;19905;53.370;-6.314;2023-05-01T09:23:24;101537.81;;;14.13;100.00
29935;BME280;19905;53.370;-6.314;2023-05-01T09:25:53;101533.94;;;14.06;100.00
29935;BME280;19905;53.370;-6.314;2023-05-01T09:28:41;101544.78;;;13.80;100.00
29935;BME280;19905;53.370;-6.314;2023-05-01T09:31:22;101539.88;;;13.52;100.00
29935;BME280;19905;53.370;-6.314;2023-05-01T09:33:55;101536.72;;;13.46;100.00
29935;BME280;19905;53.370;-6.314;2023-05-01T09:36:25;101537.28;;;13.74;100.00
29935;BME280;19905;53.370;-6.314;2023-05-01T09:38:54;101539.38;;;13.46;100.00
29935;BME280;19905;53.370;-6.314;2023-05-01T09:41:23;101548.75;;;13.39;100.00
29935;BME280;19905;53.370;-6.314;2023-05-01T09:43:53;101548.19;;;13.93;100.00
29935;BME280;19905;53.370;-6.314;2023-05-01T09:46:25;101541.91;;;13.94;100.00
29935;BME280;19905;53.370;-6.314;2023-05-01T09:48:57;101547.94;;;13.96;100.00
29935;BME280;19905;53.370;-6.314;2023-05-01T09:51:28;101548.56;;;13.89;100.00
29935;BME280;19905;53.370;-6.314;2023-05-01T09:53:58;101555.63;;;13.77;100.00
29935;BME280;19905;53.370;-6.314;2023-05-01T09:56:29;101550.09;;;13.80;100.00
29935;BME280;19905;53.370;-6.314;2023-05-01T09:59:13;101548.94;;;14.29;100.00
29935;BME280;19905;53.370;-6.314;2023-05-01T10:01:46;101541.31;;;14.36;100.00
29935;BME280;19905;53.370;-6.314;2023-05-01T10:04:16;101535.41;;;14.43;100.00
29935;BME280;19905;53.370;-6.314;2023-05-01T10:06:45;101541.22;;;14.60;100.00
29935;BME280;19905;53.370;-6.314;2023-05-01T10:09:26;101535.72;;;14.84;100.00
29935;BME280;19905;53.370;-6.314;2023-05-01T10:11:55;101542.97;;;14.93;100.00
29935;BME280;19905;53.370;-6.314;2023-05-01T10:14:25;101532.97;;;14.74;100.00
29935;BME280;19905;53.370;-6.314;2023-05-01T10:16:57;101538.28;;;14.74;100.00
29935;BME280;19905;53.370;-6.314;2023-05-01T10:19:25;101544.44;;;14.86;100.00
29935;BME280;19905;53.370;-6.314;2023-05-01T10:21:54;101539.16;;;15.07;100.00
29935;BME280;19905;53.370;-6.314;2023-05-01T10:24:23;101531.25;;;15.48;100.00
29935;BME280;19905;53.370;-6.314;2023-05-01T10:26:52;101529.56;;;15.47;100.00
29935;BME280;19905;53.370;-6.314;2023-05-01T10:29:23;101527.94;;;15.35;100.00
29935;BME280;19905;53.370;-6.314;2023-05-01T10:31:57;101535.75;;;15.16;100.00
29935;BME280;19905;53.370;-6.314;2023-05-01T10:34:27;101533.13;;;15.05;100.00
29935;BME280;19905;53.370;-6.314;2023-05-01T10:36:59;101530.66;;;15.24;100.00
29935;BME280;19905;53.370;-6.314;2023-05-01T10:39:32;101531.13;;;15.50;100.00
29935;BME280;19905;53.370;-6.314;2023-05-01T10:42:05;101516.19;;;16.00;100.00
29935;BME280;19905;53.370;-6.314;2023-05-01T10:44:37;101524.69;;;16.15;100.00
29935;BME280;19905;53.370;-6.314;2023-05-01T10:47:44;101521.66;;;16.30;100.00
29935;BME280;19905;53.370;-6.314;2023-05-01T10:50:15;101532.13;;;15.70;100.00
29935;BME280;19905;53.370;-6.314;2023-05-01T10:53:17;101537.66;;;15.25;100.00
29935;BME280;19905;53.370;-6.314;2023-05-01T10:55:47;101537.41;;;14.96;100.00
29935;BME280;19905;53.370;-6.314;2023-05-01T10:58:53;101538.63;;;14.92;100.00
29935;BME280;19905;53.370;-6.314;2023-05-01T11:01:31;101543.13;;;14.80;100.00
29935;BME280;19905;53.370;-6.314;2023-05-01T11:04:03;101543.75;;;14.61;100.00
29935;BME280;19905;53.370;-6.314;2023-05-01T11:06:35;101543.63;;;14.63;100.00
29935;BME280;19905;53.370;-6.314;2023-05-01T11:09:36;101543.66;;;15.06;100.00
29935;BME280;19905;53.370;-6.314;2023-05-01T11:12:06;101539.38;;;15.15;100.00
29935;BME280;19905;53.370;-6.314;2023-05-01T11:15:05;101547.97;;;15.50;100.00
29935;BME280;19905;53.370;-6.314;2023-05-01T11:17:46;101542.81;;;15.38;100.00
29935;BME280;19905;53.370;-6.314;2023-05-01T11:20:46;101546.53;;;15.14;100.00
29935;BME280;19905;53.370;-6.314;2023-05-01T11:23:19;101544.09;;;15.11;100.00
29935;BME280;19905;53.370;-6.314;2023-05-01T11:25:48;101550.66;;;15.39;100.00
29935;BME280;19905;53.370;-6.314;2023-05-01T11:28:20;101550.38;;;15.21;100.00
29935;BME280;19905;53.370;-6.314;2023-05-01T11:30:50;101545.38;;;15.28;100.00
29935;BME280;19905;53.370;-6.314;2023-05-01T11:33:23;101549.63;;;15.51;100.00
29935;BME280;19905;53.370;-6.314;2023-05-01T11:36:02;101542.78;;;15.70;100.00
29935;BME280;19905;53.370;-6.314;2023-05-01T11:38:31;101537.41;;;15.81;100.00
29935;BME280;19905;53.370;-6.314;2023-05-01T11:41:01;101541.69;;;15.72;100.00
29935;BME280;19905;53.370;-6.314;2023-05-01T11:43:31;101536.19;;;15.53;100.00
29935;BME280;19905;53.370;-6.314;2023-05-01T11:45:59;101532.38;;;15.46;100.00
29935;BME280;19905;53.370;-6.314;2023-05-01T11:48:31;101539.63;;;15.44;100.00
29935;BME280;19905;53.370;-6.314;2023-05-01T11:51:14;101537.91;;;15.54;100.00
29935;BME280;19905;53.370;-6.314;2023-05-01T11:54:01;101542.22;;;15.34;100.00
29935;BME280;19905;53.370;-6.314;2023-05-01T11:56:33;101536.19;;;15.53;100.00
29935;BME280;19905;53.370;-6.314;2023-05-01T11:59:12;101534.16;;;15.78;100.00
29935;BME280;19905;53.370;-6.314;2023-05-01T12:01:43;101537.13;;;15.84;100.00
29935;BME280;19905;53.370;-6.314;2023-05-01T12:04:21;101531.81;;;15.84;100.00
29935;BME280;19905;53.370;-6.314;2023-05-01T12:06:52;101541.16;;;15.79;100.00
29935;BME280;19905;53.370;-6.314;2023-05-01T12:09:22;101532.19;;;15.80;100.00
29935;BME280;19905;53.370;-6.314;2023-05-01T12:11:53;101534.91;;;15.89;100.00
29935;BME280;19905;53.370;-6.314;2023-05-01T12:14:22;101533.03;;;16.01;100.00
29935;BME280;19905;53.370;-6.314;2023-05-01T12:16:52;101525.91;;;16.11;100.00
29935;BME280;19905;53.370;-6.314;2023-05-01T12:19:21;101519.72;;;16.32;100.00
29935;BME280;19905;53.370;-6.314;2023-05-01T12:22:06;101516.63;;;16.76;100.00
29935;BME280;19905;53.370;-6.314;2023-05-01T12:24:35;101522.28;;;17.12;100.00
29935;BME280;19905;53.370;-6.314;2023-05-01T12:27:04;101520.28;;;16.95;100.00
29935;BME280;19905;53.370;-6.314;2023-05-01T12:29:40;101504.84;;;16.98;100.00
29935;BME280;19905;53.370;-6.314;2023-05-01T12:32:10;101510.19;;;16.98;100.00
29935;BME280;19905;53.370;-6.314;2023-05-01T12:34:39;101521.53;;;16.81;100.00
29935;BME280;19905;53.370;-6.314;2023-05-01T12:37:10;101511.94;;;16.59;100.00
29935;BME280;19905;53.370;-6.314;2023-05-01T12:39:39;101526.59;;;16.44;100.00
29935;BME280;19905;53.370;-6.314;2023-05-01T12:42:11;101515.28;;;16.61;100.00
29935;BME280;19905;53.370;-6.314;2023-05-01T12:44:42;101522.09;;;16.85;100.00
29935;BME280;19905;53.370;-6.314;2023-05-01T12:47:11;101514.69;;;17.27;100.00
29935;BME280;19905;53.370;-6.314;2023-05-01T12:49:41;101514.56;;;17.09;100.00
29935;BME280;19905;53.370;-6.314;2023-05-01T12:52:12;101512.84;;;17.18;100.00
29935;BME280;19905;53.370;-6.314;2023-05-01T12:54:42;101515.25;;;16.82;100.00